CheckWX is a tool to help pilots better visualize weather data.  It is not intended as a substitute for an official pre-flight weather briefing.

16:38:00 UTC

KPCD METAR
Perryville Regional Airport
Perryville, Missouri, USA
Current

23 mins ago

KPCD 201615Z AUTO 01016KT 10SM CLR 00/M07 A3064 RMK AO2 T10021070
Observed
Feb-20 @ 16:15 UTC
Wind
  • 010° at 16 KTS
Visibility
10 SM
Flight Rules
VFR
Cloud Levels
  • Clear skies
Temperature
-0°C / 32°F
Dewpoint
-7°C / 19°F
Humidity
60%
Altimeter
30.64" Hg
Pressure
1037.62 hPa
Previous

43 mins ago

KPCD 201555Z AUTO 36013G19KT 10SM CLR 00/M06 A3064 RMK AO2 T10041064
Observed
Feb-20 @ 15:55 UTC
Wind
  • 360° at 13 KTS
  • Gusting to 19 KTS
Visibility
10 SM
Flight Rules
VFR
Cloud Levels
  • Clear skies
Temperature
-0°C / 32°F
Dewpoint
-6°C / 21°F
Humidity
64%
Altimeter
30.64" Hg
Pressure
1037.62 hPa
Previous

1 hour ago

KPCD 201535Z AUTO 36013KT 10SM SCT024 M01/M06 A3064 RMK AO2 T10071062
Observed
Feb-20 @ 15:35 UTC
Wind
  • 360° at 13 KTS
Visibility
10 SM
Flight Rules
VFR
Cloud Levels
  • Scattered at 2,400' AGL
Temperature
-1°C / 30°F
Dewpoint
-6°C / 21°F
Humidity
69%
Altimeter
30.64" Hg
Pressure
1037.62 hPa